Historyczne dane pomiarowe

Dodano dane terminowe – wersja testowa.

Dane z okresu 1951-2019

Wersja bazy: 1.34 [2019-03-16, lista zmian], aktualizacja planowana na 2019-04-15

Dane meteo z obszaru Polski uzyskane na podstawie danych udostępnionych przez Instytut Meteorologii i Gospodarki Wodnej – Państwowy Instytut Badawczy.

 

Wybierz Datę:    

       

TemperaturaWilgotnośćWiatrCiśnienieOpadyŚniegCzas trwania zjawisk
 Stacja t tx tn tng RH VA  wxwx mslp ppp RRR   cm mm wxwxwxwxwxwxwx
1983-08-14 13.7 18.1 7.7- 85.0- 2.3 3.0---- 1.4------------
1983-08-13 16.0 22.1 12.6- 83.3- 6.3 2.0---- 2.9------------
1983-08-12 19.8 27.0 12.6- 75.0- 0.0 2.0---- 0.3------------
1983-08-11 19.4 26.2 14.4- 85.0- 3.7 1.3---- 1.2------------
1983-08-10 18.7 25.9 12.4- 72.5- 2.7 1.3---- 0.1------------
1983-08-09 16.7 24.2 11.9- 89.3- 7.3 3.0---- 0.4------------
1983-08-08 17.5 21.7 14.3- 88.8- 6.0 1.7---- 3.1------------
1983-08-07 16.2 19.3 13.1- 87.0- 5.7 1.3---- 5.3------------
1983-08-06 15.0 17.9 10.6- 78.8- 5.7 1.7---- 0.0------------
1983-08-05 13.1 16.3 7.4- 77.8- 3.7 2.7---- 0.0------------
1983-08-04 10.9 15.5 10.3- 92.8- 8.0 2.0---- 0.2------------
1983-08-03 18.6 22.9 15.4- 83.5- 0.7 2.0---- 2.5------------
1983-08-02 20.1 25.8 17.5- 81.0- 5.7 2.0---- 4.9------------
1983-08-01 21.6 30.5 9.9- 65.3- 0.0 3.7---- 0.0------------
1983-07-31 18.3 25.4 8.7- 64.5- 0.0 1.7---- 0.0------------
1983-07-30 18.5 24.8 15.7- 79.3- 2.7 1.3---- 0.5------------
1983-07-29 20.6 24.9 13.4- 68.3- 1.7 2.3---- 0.7------------
1983-07-28 23.2 28.5 19.4- 67.0- 1.7 2.0---- 0.0------------
1983-07-27 23.0 33.0 12.4- 61.0- 0.0 0.3---- 0.0------------
1983-07-26 20.3 28.5 11.4- 65.3- 1.0 1.7---- 0.0------------
1983-07-25 16.3 22.0 10.4- 77.8- 3.3 1.7---- 0.0------------
1983-07-24 17.3 23.1 10.1- 77.3- 1.0 1.3---- 3.6------------
1983-07-23 17.4 23.9 13.7- 74.8- 2.3 3.0---- 0.0------------
1983-07-22 13.0 15.0 8.1- 78.8- 6.7 2.7---- 0.7------------
1983-07-21 13.4 17.0 10.1- 64.0- 4.7 3.0---- 0.0------------
1983-07-20 15.7 25.0 12.7- 85.5- 7.0 2.0---- 0.9------------
1983-07-19 23.6 29.7 17.9- 67.3- 0.0 2.0---- 4.6------------
1983-07-18 22.8 32.2 13.4- 69.5- 0.0 0.7---- 0.5------------
1983-07-17 21.4 26.8 13.4- 75.0- 0.0 0.7---- 0.0------------
1983-07-16 20.5 28.2 13.8- 77.0- 0.3 3.0---- 0.0------------
1983-07-15 19.2 24.9 13.6- 80.3- 3.0 2.0---- 0.0------------
1983-07-14 18.6 22.9 16.5- 88.3- 5.7 2.0---- 6.9------------
1983-07-13 21.0 26.1 15.6- 76.5- 2.0 2.3---- 1.7------------
1983-07-12 18.5 24.6 16.3- 87.3- 6.3 2.0---- 0.9------------
1983-07-11 17.8 25.1 15.1- 90.0- 4.7 1.7---- 9.3------------
1983-07-10 22.3 29.5 13.0- 65.8- 0.0 1.3---- 0.0------------
1983-07-09 21.4 27.6 11.4- 64.5- 0.0 1.3---- 0.0------------
1983-07-08 21.8 28.0 12.8- 48.8- 0.0 1.3---- 0.0------------
1983-07-07 21.6 29.3 13.9- 63.8- 0.0 1.0---- 0.0------------
1983-07-06 21.1 28.6 13.3- 64.3- 0.0 2.3---- 0.0------------
1983-07-05 19.2 26.4 11.6- 73.8- 0.0 1.0---- 0.0------------
1983-07-04 19.2 25.9 11.4- 73.5- 2.0 0.3---- 0.0------------
1983-07-03 19.1 26.0 10.9- 69.5- 0.0 0.7---- 0.0------------
1983-07-02 18.8 21.9 14.4- 74.3- 0.3 1.7---- 0.0------------
1983-07-01 19.7 25.6 10.6- 66.3- 0.7 1.0---- 0.0------------
1983-06-30 15.9 22.4 5.9- 71.5- 0.7 1.3---- 0.0------------
1983-06-29 13.2 18.1 6.8- 70.0- 1.7 1.0---- 0.0------------
1983-06-28 15.8 23.0 14.7- 89.0- 8.0 2.3---- 1.1------------
1983-06-27 21.6 27.0 15.4- 71.8- 0.3 2.7---- 21.3------------
1983-06-26 20.2 24.9 15.8- 80.5- 2.0 1.7---- 0.0------------
1983-06-25 20.2 27.0 10.6- 58.0- 0.0 2.0---- 3.6------------
1983-06-24 16.8 25.7 5.9- 65.5- 0.0 2.0---- 0.0------------
1983-06-23 14.6 21.0 7.2- 63.0- 0.0 3.0---- 0.0------------
1983-06-22 15.8 21.8 12.3- 61.5- 0.0 4.3---- 0.0------------
1983-06-21 18.0 24.7 11.4- 76.3- 2.3 1.0---- 0.0------------
1983-06-20 17.3 20.6 15.9- 90.0- 6.7 1.0---- 0.1------------
1983-06-19 14.2 17.6 11.9- 94.8- 8.0 2.3---- 3.9------------
1983-06-18 11.4 14.2 9.4- 91.0- 8.0 1.0---- 14.9------------
1983-06-17 11.7 14.1 10.1- 77.0- 7.3 2.3---- 4.6------------
1983-06-16 11.6 13.5 8.6- 81.0- 6.7 1.3---- 0.1------------
367.3 ms

 

Źródłem pochodzenia danych jest Instytut Meteorologii i Gospodarki Wodnej – Państwowy Instytut Badawczy. Dane Instytutu Meteorologii i Gospodarki Wodnej – Państwowego Instytutu Badawczego zostały przetworzone.

Dane źródłowe można odnaleźć na stronie https://dane.imgw.pl